sensor_id;sensor_type;location;lat;lon;timestamp;pressure;altitude;pressure_sealevel;temperature;humidity
6435;BME280;3250;42.694;23.278;2023-02-26T00:00:08;93651.44;;;14.73;48.85
6435;BME280;3250;42.694;23.278;2023-02-26T00:02:37;93651.69;;;14.57;48.79
6435;BME280;3250;42.694;23.278;2023-02-26T00:05:04;93663.88;;;14.73;48.36
6435;BME280;3250;42.694;23.278;2023-02-26T00:07:30;93651.41;;;14.53;48.08
6435;BME280;3250;42.694;23.278;2023-02-26T00:09:57;93651.44;;;14.79;48.11
6435;BME280;3250;42.694;23.278;2023-02-26T00:12:23;93644.53;;;14.62;48.51
6435;BME280;3250;42.694;23.278;2023-02-26T00:14:48;93629.97;;;14.65;49.12
6435;BME280;3250;42.694;23.278;2023-02-26T00:17:34;93644.81;;;14.66;48.80
6435;BME280;3250;42.694;23.278;2023-02-26T00:20:04;93641.63;;;14.54;49.38
6435;BME280;3250;42.694;23.278;2023-02-26T00:22:30;93645.88;;;14.65;49.59
6435;BME280;3250;42.694;23.278;2023-02-26T00:24:56;93609.84;;;14.64;47.44
6435;BME280;3250;42.694;23.278;2023-02-26T00:27:21;93627.59;;;14.79;47.66
6435;BME280;3250;42.694;23.278;2023-02-26T00:29:47;93618.59;;;14.64;47.85
6435;BME280;3250;42.694;23.278;2023-02-26T00:32:13;93627.34;;;14.70;48.20
6435;BME280;3250;42.694;23.278;2023-02-26T00:34:38;93654.63;;;14.76;48.83
6435;BME280;3250;42.694;23.278;2023-02-26T00:37:26;93641.66;;;14.69;48.61
6435;BME280;3250;42.694;23.278;2023-02-26T00:42:43;93615.41;;;14.47;48.11
6435;BME280;3250;42.694;23.278;2023-02-26T00:45:13;93617.53;;;14.55;46.66
6435;BME280;3250;42.694;23.278;2023-02-26T00:47:49;93624.69;;;14.65;47.87
6435;BME280;3250;42.694;23.278;2023-02-26T00:50:21;93602.19;;;14.52;47.68
6435;BME280;3250;42.694;23.278;2023-02-26T00:53:19;93624.97;;;14.58;48.49
6435;BME280;3250;42.694;23.278;2023-02-26T00:55:46;93613.31;;;14.49;48.57
6435;BME280;3250;42.694;23.278;2023-02-26T00:58:11;93606.94;;;14.55;47.40
6435;BME280;3250;42.694;23.278;2023-02-26T01:00:37;93610.66;;;14.64;47.90
6435;BME280;3250;42.694;23.278;2023-02-26T01:03:03;93613.81;;;14.71;48.17
6435;BME280;3250;42.694;23.278;2023-02-26T01:05:29;93624.41;;;14.66;47.04
6435;BME280;3250;42.694;23.278;2023-02-26T01:08:08;93611.69;;;14.63;47.46
6435;BME280;3250;42.694;23.278;2023-02-26T01:10:37;93598.22;;;14.60;47.22
6435;BME280;3250;42.694;23.278;2023-02-26T01:13:03;93601.38;;;14.67;47.50
6435;BME280;3250;42.694;23.278;2023-02-26T01:15:28;93608.00;;;14.59;47.12
6435;BME280;3250;42.694;23.278;2023-02-26T01:20:37;93577.81;;;14.50;48.36
6435;BME280;3250;42.694;23.278;2023-02-26T01:23:08;93591.31;;;14.59;47.45
6435;BME280;3250;42.694;23.278;2023-02-26T01:25:39;93589.50;;;14.44;47.52
6435;BME280;3250;42.694;23.278;2023-02-26T01:28:07;93546.28;;;14.64;44.56
6435;BME280;3250;42.694;23.278;2023-02-26T01:30:33;93579.91;;;14.73;45.36
6435;BME280;3250;42.694;23.278;2023-02-26T01:33:00;93576.47;;;14.78;45.99
6435;BME280;3250;42.694;23.278;2023-02-26T01:41:06;93525.66;;;14.61;44.45
6435;BME280;3250;42.694;23.278;2023-02-26T01:43:56;93559.22;;;14.86;44.62
6435;BME280;3250;42.694;23.278;2023-02-26T01:49:26;93584.66;;;14.82;44.99
6435;BME280;3250;42.694;23.278;2023-02-26T01:54:21;93559.78;;;14.78;44.79
6435;BME280;3250;42.694;23.278;2023-02-26T01:56:49;93537.81;;;14.67;45.31
6435;BME280;3250;42.694;23.278;2023-02-26T01:59:17;93562.69;;;14.71;45.41
6435;BME280;3250;42.694;23.278;2023-02-26T02:01:51;93496.81;;;14.44;44.84
6435;BME280;3250;42.694;23.278;2023-02-26T02:04:17;93524.31;;;14.53;45.47
6435;BME280;3250;42.694;23.278;2023-02-26T02:06:43;93542.31;;;14.56;45.76
6435;BME280;3250;42.694;23.278;2023-02-26T02:09:10;93512.44;;;14.41;45.05
6435;BME280;3250;42.694;23.278;2023-02-26T02:11:52;93524.31;;;14.58;45.04
6435;BME280;3250;42.694;23.278;2023-02-26T02:14:23;93519.28;;;14.57;44.65
6435;BME280;3250;42.694;23.278;2023-02-26T02:17:17;93538.63;;;14.52;44.98
6435;BME280;3250;42.694;23.278;2023-02-26T02:31:07;93530.44;;;14.44;45.73
6435;BME280;3250;42.694;23.278;2023-02-26T02:36:33;93524.09;;;14.40;45.28
6435;BME280;3250;42.694;23.278;2023-02-26T02:39:09;93529.88;;;14.36;46.09
6435;BME280;3250;42.694;23.278;2023-02-26T02:41:41;93524.88;;;14.40;45.25
6435;BME280;3250;42.694;23.278;2023-02-26T02:44:13;93532.28;;;14.33;45.30
6435;BME280;3250;42.694;23.278;2023-02-26T02:46:42;93553.44;;;14.38;44.96
6435;BME280;3250;42.694;23.278;2023-02-26T02:49:15;93533.84;;;14.29;44.87
6435;BME280;3250;42.694;23.278;2023-02-26T02:51:49;93545.78;;;14.47;45.38
6435;BME280;3250;42.694;23.278;2023-02-26T02:54:44;93530.72;;;14.42;45.57
6435;BME280;3250;42.694;23.278;2023-02-26T02:57:16;93555.84;;;14.40;44.80
6435;BME280;3250;42.694;23.278;2023-02-26T02:59:46;93560.88;;;14.26;44.73
6435;BME280;3250;42.694;23.278;2023-02-26T03:02:28;93530.69;;;14.17;44.70
6435;BME280;3250;42.694;23.278;2023-02-26T03:04:56;93560.88;;;14.26;44.85
6435;BME280;3250;42.694;23.278;2023-02-26T03:07:21;93552.94;;;14.26;45.17
6435;BME280;3250;42.694;23.278;2023-02-26T03:09:47;93536.50;;;14.19;44.71
6435;BME280;3250;42.694;23.278;2023-02-26T03:12:13;93570.94;;;14.44;44.27
6435;BME280;3250;42.694;23.278;2023-02-26T03:14:38;93565.66;;;14.39;44.53
6435;BME280;3250;42.694;23.278;2023-02-26T03:17:26;93547.13;;;14.39;44.08
6435;BME280;3250;42.694;23.278;2023-02-26T03:23:04;93557.69;;;14.49;44.38
6435;BME280;3250;42.694;23.278;2023-02-26T03:25:49;93551.88;;;14.42;44.20
6435;BME280;3250;42.694;23.278;2023-02-26T03:28:31;93564.06;;;14.43;44.15
6435;BME280;3250;42.694;23.278;2023-02-26T03:31:43;93538.91;;;14.35;44.23
6435;BME280;3250;42.694;23.278;2023-02-26T03:37:10;93547.09;;;14.29;44.42
6435;BME280;3250;42.694;23.278;2023-02-26T03:39:42;93541.00;;;14.28;45.19
6435;BME280;3250;42.694;23.278;2023-02-26T03:42:16;93524.59;;;14.11;45.59
6435;BME280;3250;42.694;23.278;2023-02-26T03:44:50;93530.69;;;14.17;45.52
6435;BME280;3250;42.694;23.278;2023-02-26T03:47:17;93520.09;;;14.12;45.62
6435;BME280;3250;42.694;23.278;2023-02-26T03:49:56;93553.72;;;14.26;45.77
6435;BME280;3250;42.694;23.278;2023-02-26T03:52:26;93510.56;;;14.11;46.11
6435;BME280;3250;42.694;23.278;2023-02-26T03:57:45;93508.72;;;13.96;47.00
6435;BME280;3250;42.694;23.278;2023-02-26T04:00:11;93497.34;;;13.90;47.19
6435;BME280;3250;42.694;23.278;2023-02-26T04:05:18;93541.78;;;14.19;47.22
6435;BME280;3250;42.694;23.278;2023-02-26T04:07:46;93525.94;;;14.14;46.92
6435;BME280;3250;42.694;23.278;2023-02-26T04:10:19;93537.56;;;14.13;47.48
6435;BME280;3250;42.694;23.278;2023-02-26T04:12:46;93513.22;;;14.11;46.72
6435;BME280;3250;42.694;23.278;2023-02-26T04:15:11;93534.41;;;14.01;46.59
6435;BME280;3250;42.694;23.278;2023-02-26T04:17:37;93509.00;;;14.00;47.03
6435;BME280;3250;42.694;23.278;2023-02-26T04:20:03;93524.06;;;13.99;47.56
6435;BME280;3250;42.694;23.278;2023-02-26T04:22:38;93501.06;;;13.89;46.82
6435;BME280;3250;42.694;23.278;2023-02-26T04:25:04;93512.69;;;14.09;45.45
6435;BME280;3250;42.694;23.278;2023-02-26T04:27:29;93463.75;;;13.81;45.16
6435;BME280;3250;42.694;23.278;2023-02-26T04:29:55;93509.25;;;14.13;45.96
6435;BME280;3250;42.694;23.278;2023-02-26T04:32:20;93504.22;;;14.22;45.31
6435;BME280;3250;42.694;23.278;2023-02-26T04:34:45;93479.34;;;14.13;45.42
6435;BME280;3250;42.694;23.278;2023-02-26T04:37:11;93494.19;;;14.09;45.58
6435;BME280;3250;42.694;23.278;2023-02-26T04:39:36;93502.63;;;14.16;44.75
6435;BME280;3250;42.694;23.278;2023-02-26T04:42:02;93483.84;;;14.22;45.06
6435;BME280;3250;42.694;23.278;2023-02-26T04:44:29;93440.47;;;14.08;45.06
6435;BME280;3250;42.694;23.278;2023-02-26T04:46:54;93451.84;;;14.09;45.15
6435;BME280;3250;42.694;23.278;2023-02-26T04:49:19;93483.31;;;14.20;45.54
6435;BME280;3250;42.694;23.278;2023-02-26T04:51:45;93481.19;;;14.22;44.28
6435;BME280;3250;42.694;23.278;2023-02-26T04:54:10;93460.28;;;14.21;44.25
6435;BME280;3250;42.694;23.278;2023-02-26T04:56:35;93463.97;;;14.35;43.40
6435;BME280;3250;42.694;23.278;2023-02-26T04:59:01;93429.34;;;14.01;44.14
6435;BME280;3250;42.694;23.278;2023-02-26T05:01:26;93440.94;;;14.41;42.34
6435;BME280;3250;42.694;23.278;2023-02-26T05:03:52;93432.22;;;14.25;42.55
6435;BME280;3250;42.694;23.278;2023-02-26T05:06:17;93459.75;;;14.44;43.04
6435;BME280;3250;42.694;23.278;2023-02-26T05:08:42;93444.91;;;14.28;42.77
6435;BME280;3250;42.694;23.278;2023-02-26T05:11:09;93439.63;;;14.33;42.57
6435;BME280;3250;42.694;23.278;2023-02-26T05:13:35;93450.97;;;14.54;42.26
6435;BME280;3250;42.694;23.278;2023-02-26T05:16:00;93434.56;;;14.52;42.72
6435;BME280;3250;42.694;23.278;2023-02-26T05:18:26;93406.53;;;14.30;42.88
6435;BME280;3250;42.694;23.278;2023-02-26T05:20:55;93439.34;;;14.45;42.81
6435;BME280;3250;42.694;23.278;2023-02-26T05:23:21;93440.13;;;14.50;42.16
6435;BME280;3250;42.694;23.278;2023-02-26T05:25:47;93413.09;;;14.58;41.64
6435;BME280;3250;42.694;23.278;2023-02-26T05:28:12;93437.72;;;14.59;42.26
6435;BME280;3250;42.694;23.278;2023-02-26T05:30:38;93372.28;;;14.64;41.80
6435;BME280;3250;42.694;23.278;2023-02-26T05:33:04;93408.31;;;14.55;41.98
6435;BME280;3250;42.694;23.278;2023-02-26T05:35:29;93418.66;;;14.57;41.86
6435;BME280;3250;42.694;23.278;2023-02-26T05:37:55;93409.56;;;14.78;41.01
6435;BME280;3250;42.694;23.278;2023-02-26T05:40:20;93418.28;;;14.84;40.94
6435;BME280;3250;42.694;23.278;2023-02-26T05:42:47;93405.00;;;14.94;41.17
6435;BME280;3250;42.694;23.278;2023-02-26T05:45:13;93408.44;;;14.89;40.73
6435;BME280;3250;42.694;23.278;2023-02-26T05:47:38;93417.94;;;15.00;40.10
6435;BME280;3250;42.694;23.278;2023-02-26T05:50:04;93398.13;;;14.88;40.25
6435;BME280;3250;42.694;23.278;2023-02-26T05:52:30;93425.63;;;15.02;40.49
6435;BME280;3250;42.694;23.278;2023-02-26T05:54:56;93394.34;;;14.99;40.57
6435;BME280;3250;42.694;23.278;2023-02-26T05:57:22;93432.50;;;15.03;40.17
6435;BME280;3250;42.694;23.278;2023-02-26T05:59:48;93429.81;;;15.08;39.70
6435;BME280;3250;42.694;23.278;2023-02-26T06:02:13;93435.34;;;15.17;40.08
6435;BME280;3250;42.694;23.278;2023-02-26T06:04:38;93422.66;;;15.08;39.53
6435;BME280;3250;42.694;23.278;2023-02-26T06:07:04;93423.84;;;15.31;39.07
6435;BME280;3250;42.694;23.278;2023-02-26T06:09:29;93417.50;;;15.27;38.63
6435;BME280;3250;42.694;23.278;2023-02-26T06:11:55;93401.06;;;15.30;38.49
6435;BME280;3250;42.694;23.278;2023-02-26T06:14:20;93451.81;;;15.53;38.39
6435;BME280;3250;42.694;23.278;2023-02-26T06:16:46;93460.75;;;15.72;37.19
6435;BME280;3250;42.694;23.278;2023-02-26T06:19:11;93437.34;;;15.79;37.46
6435;BME280;3250;42.694;23.278;2023-02-26T06:21:37;93446.75;;;15.95;36.95
6435;BME280;3250;42.694;23.278;2023-02-26T06:24:02;93452.56;;;16.26;36.85
6435;BME280;3250;42.694;23.278;2023-02-26T06:26:27;93464.41;;;16.39;36.56
6435;BME280;3250;42.694;23.278;2023-02-26T06:28:53;93437.78;;;16.44;35.92
6435;BME280;3250;42.694;23.278;2023-02-26T06:31:18;93470.00;;;16.37;35.91
6435;BME280;3250;42.694;23.278;2023-02-26T06:33:44;93399.97;;;16.52;35.54
6435;BME280;3250;42.694;23.278;2023-02-26T06:36:09;93433.16;;;16.54;34.97
6435;BME280;3250;42.694;23.278;2023-02-26T06:38:34;93419.31;;;16.34;34.75
6435;BME280;3250;42.694;23.278;2023-02-26T06:41:00;93429.25;;;16.76;33.82
6435;BME280;3250;42.694;23.278;2023-02-26T06:43:26;93456.00;;;16.55;34.07
6435;BME280;3250;42.694;23.278;2023-02-26T06:45:51;93415.00;;;16.38;34.07
6435;BME280;3250;42.694;23.278;2023-02-26T06:48:16;93396.16;;;16.39;33.97
6435;BME280;3250;42.694;23.278;2023-02-26T06:50:42;93398.94;;;16.77;33.50
6435;BME280;3250;42.694;23.278;2023-02-26T06:53:07;93404.75;;;16.79;33.84
6435;BME280;3250;42.694;23.278;2023-02-26T06:55:33;93409.25;;;17.02;33.05
6435;BME280;3250;42.694;23.278;2023-02-26T06:57:58;93421.47;;;17.22;32.62
6435;BME280;3250;42.694;23.278;2023-02-26T07:00:24;93432.84;;;17.46;32.33
6435;BME280;3250;42.694;23.278;2023-02-26T07:02:51;93437.38;;;17.64;31.60
6435;BME280;3250;42.694;23.278;2023-02-26T07:05:16;93427.66;;;17.73;31.18
6435;BME280;3250;42.694;23.278;2023-02-26T07:07:42;93439.88;;;17.93;30.94
6435;BME280;3250;42.694;23.278;2023-02-26T07:10:09;93424.22;;;18.05;30.31
6435;BME280;3250;42.694;23.278;2023-02-26T07:12:35;93456.38;;;18.41;30.05
6435;BME280;3250;42.694;23.278;2023-02-26T07:15:05;93428.91;;;18.73;28.96
6435;BME280;3250;42.694;23.278;2023-02-26T07:17:31;93413.31;;;18.34;29.20
6435;BME280;3250;42.694;23.278;2023-02-26T07:19:56;93431.09;;;18.53;29.55
6435;BME280;3250;42.694;23.278;2023-02-26T07:22:22;93444.72;;;18.51;29.35
6435;BME280;3250;42.694;23.278;2023-02-26T07:24:48;93451.69;;;18.66;29.04
6435;BME280;3250;42.694;23.278;2023-02-26T07:27:14;93443.81;;;19.02;29.65
6435;BME280;3250;42.694;23.278;2023-02-26T07:29:39;93464.31;;;19.29;28.95
6435;BME280;3250;42.694;23.278;2023-02-26T07:32:05;93407.47;;;18.92;28.77
6435;BME280;3250;42.694;23.278;2023-02-26T07:34:31;93449.28;;;19.33;29.67
6435;BME280;3250;42.694;23.278;2023-02-26T07:36:56;93435.81;;;19.38;28.42
6435;BME280;3250;42.694;23.278;2023-02-26T07:39:23;93428.19;;;18.95;29.28
6435;BME280;3250;42.694;23.278;2023-02-26T07:41:49;93443.00;;;19.15;29.67
6435;BME280;3250;42.694;23.278;2023-02-26T07:44:14;93429.59;;;18.65;29.94
6435;BME280;3250;42.694;23.278;2023-02-26T07:46:40;93435.59;;;18.71;30.20
6435;BME280;3250;42.694;23.278;2023-02-26T07:49:05;93420.16;;;18.54;29.79
6435;BME280;3250;42.694;23.278;2023-02-26T07:51:31;93405.84;;;18.50;29.79
6435;BME280;3250;42.694;23.278;2023-02-26T07:53:56;93426.63;;;18.67;29.19
6435;BME280;3250;42.694;23.278;2023-02-26T07:56:22;93424.63;;;18.86;29.33
6435;BME280;3250;42.694;23.278;2023-02-26T07:58:47;93437.66;;;18.88;29.34
6435;BME280;3250;42.694;23.278;2023-02-26T08:01:13;93443.13;;;18.82;29.18
6435;BME280;3250;42.694;23.278;2023-02-26T08:03:38;93449.84;;;18.94;29.44
6435;BME280;3250;42.694;23.278;2023-02-26T08:06:04;93437.41;;;18.29;29.36
6435;BME280;3250;42.694;23.278;2023-02-26T08:08:29;93448.84;;;18.16;30.00
6435;BME280;3250;42.694;23.278;2023-02-26T08:10:58;93425.94;;;18.15;31.31
6435;BME280;3250;42.694;23.278;2023-02-26T08:13:24;93439.72;;;18.17;30.59
6435;BME280;3250;42.694;23.278;2023-02-26T08:15:49;93428.91;;;18.27;30.90
6435;BME280;3250;42.694;23.278;2023-02-26T08:18:15;93422.25;;;17.97;30.16
6435;BME280;3250;42.694;23.278;2023-02-26T08:20:40;93423.44;;;18.05;31.60
6435;BME280;3250;42.694;23.278;2023-02-26T08:23:06;93442.22;;;17.81;30.93
6435;BME280;3250;42.694;23.278;2023-02-26T08:25:31;93439.88;;;17.75;31.59
6435;BME280;3250;42.694;23.278;2023-02-26T08:27:57;93427.25;;;17.66;31.16
6435;BME280;3250;42.694;23.278;2023-02-26T08:30:23;93402.06;;;17.40;31.37
6435;BME280;3250;42.694;23.278;2023-02-26T08:32:48;93460.78;;;18.00;31.29
6435;BME280;3250;42.694;23.278;2023-02-26T08:35:14;93441.97;;;17.96;31.30
6435;BME280;3250;42.694;23.278;2023-02-26T08:37:40;93446.78;;;17.94;31.26
6435;BME280;3250;42.694;23.278;2023-02-26T08:40:06;93426.94;;;17.68;31.26
6435;BME280;3250;42.694;23.278;2023-02-26T08:42:33;93455.84;;;17.75;31.46
6435;BME280;3250;42.694;23.278;2023-02-26T08:44:58;93488.34;;;18.09;30.99
6435;BME280;3250;42.694;23.278;2023-02-26T08:47:24;93432.75;;;17.89;32.08
6435;BME280;3250;42.694;23.278;2023-02-26T08:49:49;93450.50;;;18.26;31.53
6435;BME280;3250;42.694;23.278;2023-02-26T08:52:15;93442.59;;;18.07;30.94
6435;BME280;3250;42.694;23.278;2023-02-26T08:54:40;93450.56;;;18.07;30.88
6435;BME280;3250;42.694;23.278;2023-02-26T08:57:05;93478.53;;;18.23;30.69
6435;BME280;3250;42.694;23.278;2023-02-26T08:59:31;93465.38;;;18.13;30.86
6435;BME280;3250;42.694;23.278;2023-02-26T09:01:56;93452.22;;;17.70;30.53
6435;BME280;3250;42.694;23.278;2023-02-26T09:04:21;93462.19;;;17.79;31.08
6435;BME280;3250;42.694;23.278;2023-02-26T09:06:47;93446.94;;;17.84;31.15
6435;BME280;3250;42.694;23.278;2023-02-26T09:09:12;93462.47;;;17.58;30.91
6435;BME280;3250;42.694;23.278;2023-02-26T09:11:38;93478.03;;;17.89;32.63
6435;BME280;3250;42.694;23.278;2023-02-26T09:14:03;93476.97;;;18.22;31.31
6435;BME280;3250;42.694;23.278;2023-02-26T09:16:29;93488.00;;;18.62;30.21
6435;BME280;3250;42.694;23.278;2023-02-26T09:18:56;93480.53;;;18.77;29.46
6435;BME280;3250;42.694;23.278;2023-02-26T09:21:21;93482.13;;;19.06;28.73
6435;BME280;3250;42.694;23.278;2023-02-26T09:23:47;93474.22;;;19.14;28.78
6435;BME280;3250;42.694;23.278;2023-02-26T09:26:12;93476.56;;;19.30;28.78
6435;BME280;3250;42.694;23.278;2023-02-26T09:28:38;93494.75;;;19.41;27.22
6435;BME280;3250;42.694;23.278;2023-02-26T09:31:04;93460.59;;;19.02;27.66
6435;BME280;3250;42.694;23.278;2023-02-26T09:33:31;93482.81;;;19.52;28.12
6435;BME280;3250;42.694;23.278;2023-02-26T09:35:57;93455.50;;;19.55;27.12
6435;BME280;3250;42.694;23.278;2023-02-26T09:38:22;93509.03;;;19.86;26.91
6435;BME280;3250;42.694;23.278;2023-02-26T09:40:53;93490.06;;;19.74;26.81
6435;BME280;3250;42.694;23.278;2023-02-26T09:49:02;93475.75;;;19.92;26.42
6435;BME280;3250;42.694;23.278;2023-02-26T09:51:33;93475.03;;;20.01;27.27
6435;BME280;3250;42.694;23.278;2023-02-26T09:54:08;93474.53;;;19.76;26.85
6435;BME280;3250;42.694;23.278;2023-02-26T09:56:38;93480.88;;;19.67;27.18
6435;BME280;3250;42.694;23.278;2023-02-26T09:59:04;93488.38;;;19.78;26.85
6435;BME280;3250;42.694;23.278;2023-02-26T10:01:47;93506.91;;;19.61;27.83
6435;BME280;3250;42.694;23.278;2023-02-26T10:12:28;93478.06;;;19.49;27.63
6435;BME280;3250;42.694;23.278;2023-02-26T10:15:19;93476.91;;;19.64;28.58
6435;BME280;3250;42.694;23.278;2023-02-26T10:18:20;93453.75;;;19.73;28.59
6435;BME280;3250;42.694;23.278;2023-02-26T10:23:24;93475.97;;;19.60;29.40
6435;BME280;3250;42.694;23.278;2023-02-26T10:35:19;93458.34;;;19.59;28.90
6435;BME280;3250;42.694;23.278;2023-02-26T10:40:19;93420.50;;;19.57;29.26
6435;BME280;3250;42.694;23.278;2023-02-26T10:43:10;93442.34;;;19.45;29.55
6435;BME280;3250;42.694;23.278;2023-02-26T10:48:20;93446.25;;;19.12;30.47
6435;BME280;3250;42.694;23.278;2023-02-26T10:50:53;93445.38;;;19.16;30.78
6435;BME280;3250;42.694;23.278;2023-02-26T10:53:21;93411.22;;;18.91;30.66
6435;BME280;3250;42.694;23.278;2023-02-26T10:56:10;93430.47;;;19.02;30.78
6435;BME280;3250;42.694;23.278;2023-02-26T10:58:38;93394.31;;;18.82;30.96
6435;BME280;3250;42.694;23.278;2023-02-26T11:01:12;93435.03;;;18.74;31.32
6435;BME280;3250;42.694;23.278;2023-02-26T11:03:41;93426.63;;;18.80;31.99
6435;BME280;3250;42.694;23.278;2023-02-26T11:06:07;93431.38;;;18.83;31.54
6435;BME280;3250;42.694;23.278;2023-02-26T11:08:46;93409.16;;;18.74;31.83
6435;BME280;3250;42.694;23.278;2023-02-26T11:11:50;93433.13;;;18.88;31.83
6435;BME280;3250;42.694;23.278;2023-02-26T11:14:16;93408.94;;;18.84;30.88
6435;BME280;3250;42.694;23.278;2023-02-26T11:16:55;93357.25;;;18.26;30.55
6435;BME280;3250;42.694;23.278;2023-02-26T11:19:30;93408.72;;;18.40;31.72
6435;BME280;3250;42.694;23.278;2023-02-26T11:21:58;93408.47;;;18.23;31.72
6435;BME280;3250;42.694;23.278;2023-02-26T11:24:34;93425.94;;;18.29;32.26
6435;BME280;3250;42.694;23.278;2023-02-26T11:27:03;93450.38;;;18.17;31.99
6435;BME280;3250;42.694;23.278;2023-02-26T11:29:38;93416.41;;;17.95;31.94
6435;BME280;3250;42.694;23.278;2023-02-26T11:32:05;93385.38;;;17.72;32.71
6435;BME280;3250;42.694;23.278;2023-02-26T11:34:31;93366.66;;;17.58;33.48
6435;BME280;3250;42.694;23.278;2023-02-26T11:36:58;93409.16;;;17.82;33.16
6435;BME280;3250;42.694;23.278;2023-02-26T11:39:28;93396.81;;;17.73;33.86
6435;BME280;3250;42.694;23.278;2023-02-26T11:41:58;93394.56;;;17.61;34.19
6435;BME280;3250;42.694;23.278;2023-02-26T11:44:34;93416.09;;;17.64;34.85
6435;BME280;3250;42.694;23.278;2023-02-26T11:47:12;93375.81;;;17.33;35.05
6435;BME280;3250;42.694;23.278;2023-02-26T11:49:49;93447.75;;;17.66;34.53
6435;BME280;3250;42.694;23.278;2023-02-26T11:54:45;93397.19;;;17.10;35.23
6435;BME280;3250;42.694;23.278;2023-02-26T11:57:16;93460.78;;;17.25;36.09
6435;BME280;3250;42.694;23.278;2023-02-26T11:59:47;93464.09;;;17.17;36.30
6435;BME280;3250;42.694;23.278;2023-02-26T12:02:14;93493.28;;;17.22;36.92
6435;BME280;3250;42.694;23.278;2023-02-26T12:04:45;93520.38;;;17.24;36.69
6435;BME280;3250;42.694;23.278;2023-02-26T12:07:14;93510.50;;;17.29;36.74
6435;BME280;3250;42.694;23.278;2023-02-26T12:09:41;93514.66;;;17.35;36.74
6435;BME280;3250;42.694;23.278;2023-02-26T12:17:24;93517.47;;;17.44;35.35
6435;BME280;3250;42.694;23.278;2023-02-26T12:40:16;93562.50;;;17.17;38.26
6435;BME280;3250;42.694;23.278;2023-02-26T13:07:46;93589.97;;;17.79;36.73
6435;BME280;3250;42.694;23.278;2023-02-26T13:21:45;93596.94;;;17.51;36.23
6435;BME280;3250;42.694;23.278;2023-02-26T13:24:20;93579.34;;;17.55;36.65
6435;BME280;3250;42.694;23.278;2023-02-26T13:26:48;93580.31;;;17.64;37.71
6435;BME280;3250;42.694;23.278;2023-02-26T13:29:25;93587.03;;;17.80;38.81
6435;BME280;3250;42.694;23.278;2023-02-26T13:32:01;93583.78;;;17.83;39.13
6435;BME280;3250;42.694;23.278;2023-02-26T13:34:49;93584.88;;;18.01;38.62
6435;BME280;3250;42.694;23.278;2023-02-26T13:45:37;93550.66;;;18.27;37.79
6435;BME280;3250;42.694;23.278;2023-02-26T13:50:52;93570.56;;;18.16;37.58
6435;BME280;3250;42.694;23.278;2023-02-26T13:58:39;93549.25;;;18.16;37.13
6435;BME280;3250;42.694;23.278;2023-02-26T14:01:09;93565.09;;;18.07;36.27
6435;BME280;3250;42.694;23.278;2023-02-26T14:03:51;93558.09;;;17.92;36.77
6435;BME280;3250;42.694;23.278;2023-02-26T14:06:37;93568.09;;;17.63;37.51
6435;BME280;3250;42.694;23.278;2023-02-26T14:12:26;93565.59;;;17.71;38.77
6435;BME280;3250;42.694;23.278;2023-02-26T14:17:48;93570.75;;;17.82;38.41
6435;BME280;3250;42.694;23.278;2023-02-26T14:20:27;93569.69;;;17.64;37.87
6435;BME280;3250;42.694;23.278;2023-02-26T14:25:46;93569.31;;;17.70;37.82
6435;BME280;3250;42.694;23.278;2023-02-26T14:28:34;93534.66;;;17.52;38.11
6435;BME280;3250;42.694;23.278;2023-02-26T14:31:17;93573.56;;;17.71;38.07
6435;BME280;3250;42.694;23.278;2023-02-26T14:33:56;93575.44;;;17.71;38.14
6435;BME280;3250;42.694;23.278;2023-02-26T14:39:22;93570.44;;;17.64;35.35
6435;BME280;3250;42.694;23.278;2023-02-26T14:41:48;93573.09;;;17.64;36.68
6435;BME280;3250;42.694;23.278;2023-02-26T14:44:22;93519.69;;;17.37;36.36
6435;BME280;3250;42.694;23.278;2023-02-26T14:46:50;93579.81;;;17.57;36.76
6435;BME280;3250;42.694;23.278;2023-02-26T14:52:31;93568.88;;;17.40;36.56
6435;BME280;3250;42.694;23.278;2023-02-26T14:55:22;93580.75;;;17.47;38.29
6435;BME280;3250;42.694;23.278;2023-02-26T15:08:42;93601.75;;;17.25;37.66
6435;BME280;3250;42.694;23.278;2023-02-26T15:11:26;93590.78;;;17.31;38.42
6435;BME280;3250;42.694;23.278;2023-02-26T15:15:16;93592.78;;;17.21;39.99
6435;BME280;3250;42.694;23.278;2023-02-26T15:17:26;93554.47;;;16.69;40.53
6435;BME280;3250;42.694;23.278;2023-02-26T15:24:58;93586.44;;;16.59;38.61
6435;BME280;3250;42.694;23.278;2023-02-26T15:27:28;93622.41;;;16.80;38.78
6435;BME280;3250;42.694;23.278;2023-02-26T15:29:58;93609.03;;;16.56;41.27
6435;BME280;3250;42.694;23.278;2023-02-26T15:32:28;93601.63;;;16.14;41.75
6435;BME280;3250;42.694;23.278;2023-02-26T15:37:29;93651.50;;;16.22;43.94
6435;BME280;3250;42.694;23.278;2023-02-26T15:39:58;93657.34;;;16.19;44.56
6435;BME280;3250;42.694;23.278;2023-02-26T15:42:28;93591.31;;;15.59;44.86
6435;BME280;3250;42.694;23.278;2023-02-26T15:44:59;93611.41;;;15.75;45.00
6435;BME280;3250;42.694;23.278;2023-02-26T15:47:26;93595.56;;;15.65;46.18
6435;BME280;3250;42.694;23.278;2023-02-26T15:49:53;93616.97;;;15.78;45.17
6435;BME280;3250;42.694;23.278;2023-02-26T15:52:21;93619.88;;;15.82;44.66
6435;BME280;3250;42.694;23.278;2023-02-26T15:54:49;93621.00;;;15.66;44.89
6435;BME280;3250;42.694;23.278;2023-02-26T15:57:17;93680.81;;;16.07;45.47
6435;BME280;3250;42.694;23.278;2023-02-26T15:59:50;93620.47;;;15.74;45.93
6435;BME280;3250;42.694;23.278;2023-02-26T16:02:25;93596.66;;;15.54;45.47
6435;BME280;3250;42.694;23.278;2023-02-26T16:04:51;93678.19;;;15.92;45.59
6435;BME280;3250;42.694;23.278;2023-02-26T16:07:18;93650.91;;;15.87;45.65
6435;BME280;3250;42.694;23.278;2023-02-26T16:09:49;93678.75;;;15.89;45.89
6435;BME280;3250;42.694;23.278;2023-02-26T16:12:19;93637.72;;;15.66;46.41
6435;BME280;3250;42.694;23.278;2023-02-26T16:14:49;93693.84;;;15.94;46.24
6435;BME280;3250;42.694;23.278;2023-02-26T16:17:24;93642.78;;;15.63;45.90
6435;BME280;3250;42.694;23.278;2023-02-26T16:19:51;93641.22;;;15.57;46.20
6435;BME280;3250;42.694;23.278;2023-02-26T16:22:31;93698.97;;;15.80;46.37
6435;BME280;3250;42.694;23.278;2023-02-26T16:25:07;93686.25;;;15.72;46.39
6435;BME280;3250;42.694;23.278;2023-02-26T16:27:33;93664.59;;;15.34;46.93
6435;BME280;3250;42.694;23.278;2023-02-26T16:30:01;93651.06;;;15.31;47.00